createdAt,value
2023-05-19T00:00:46.953Z,9.94
2023-05-19T00:03:53.753Z,9.89
2023-05-19T00:06:57.518Z,9.88
2023-05-19T00:10:00.619Z,9.73
2023-05-19T00:13:03.200Z,9.86
2023-05-19T00:16:06.447Z,9.83
2023-05-19T00:19:10.349Z,9.75
2023-05-19T00:22:14.573Z,9.75
2023-05-19T00:25:17.258Z,9.75
2023-05-19T00:28:20.050Z,9.74
2023-05-19T00:31:22.914Z,9.73
2023-05-19T00:34:25.772Z,9.72
2023-05-19T00:37:28.269Z,9.66
2023-05-19T00:40:31.525Z,9.62
2023-05-19T00:43:37.040Z,9.60
2023-05-19T00:46:39.932Z,9.64
2023-05-19T00:49:42.408Z,9.63
2023-05-19T00:52:45.205Z,9.61
2023-05-19T00:55:49.481Z,9.62
2023-05-19T00:58:52.257Z,9.59
2023-05-19T01:01:54.924Z,9.53
2023-05-19T01:04:57.825Z,9.48
2023-05-19T01:08:00.344Z,9.43
2023-05-19T01:11:04.100Z,9.39
2023-05-19T01:14:06.780Z,9.31
2023-05-19T01:17:21.004Z,9.27
2023-05-19T01:20:53.988Z,9.25
2023-05-19T01:24:06.373Z,9.29
2023-05-19T01:27:21.764Z,9.29
2023-05-19T01:30:33.371Z,9.31
2023-05-19T01:33:36.194Z,9.36
2023-05-19T01:36:39.256Z,9.33
2023-05-19T01:39:43.064Z,9.33
2023-05-19T01:42:46.877Z,9.33
2023-05-19T01:45:49.950Z,9.38
2023-05-19T01:48:52.881Z,9.39
2023-05-19T01:51:56.243Z,9.40
2023-05-19T01:54:59.091Z,9.46
2023-05-19T01:58:16.529Z,9.43
2023-05-19T02:01:25.387Z,9.44
2023-05-19T02:04:40.015Z,9.41
2023-05-19T02:07:52.459Z,9.27
2023-05-19T02:10:58.806Z,9.36
2023-05-19T02:14:03.546Z,9.31
2023-05-19T02:17:06.466Z,9.32
2023-05-19T02:20:09.904Z,9.33
2023-05-19T02:23:12.663Z,9.33
2023-05-19T02:26:15.722Z,9.36
2023-05-19T02:29:19.164Z,9.37
2023-05-19T02:32:22.041Z,9.36
2023-05-19T02:35:24.840Z,9.37
2023-05-19T02:38:27.675Z,9.39
2023-05-19T02:41:30.798Z,9.38
2023-05-19T02:44:33.472Z,9.32
2023-05-19T02:47:37.157Z,9.36
2023-05-19T02:50:39.935Z,9.37
2023-05-19T02:53:42.771Z,9.36
2023-05-19T02:56:45.367Z,9.34
2023-05-19T02:59:48.104Z,9.36
2023-05-19T03:02:53.088Z,9.33
2023-05-19T03:05:56.256Z,9.29
2023-05-19T03:08:58.968Z,9.32
2023-05-19T03:12:04.045Z,9.29
2023-05-19T03:15:07.256Z,9.32
2023-05-19T03:18:10.113Z,9.39
2023-05-19T03:21:12.766Z,9.40
2023-05-19T03:24:16.164Z,9.38
2023-05-19T03:27:18.664Z,9.38
2023-05-19T03:30:22.227Z,9.43
2023-05-19T03:33:28.103Z,9.38
2023-05-19T03:36:39.704Z,9.42
2023-05-19T03:39:44.455Z,9.41
2023-05-19T03:42:47.328Z,9.40
2023-05-19T03:45:49.873Z,9.40
2023-05-19T03:48:54.421Z,9.40
2023-05-19T03:51:58.206Z,9.32
2023-05-19T03:55:01.868Z,9.43
2023-05-19T03:58:04.450Z,9.36
2023-05-19T04:01:07.272Z,9.32
2023-05-19T04:04:10.123Z,9.45
2023-05-19T04:07:12.703Z,9.40
2023-05-19T04:10:17.397Z,9.44
2023-05-19T04:13:21.179Z,9.44
2023-05-19T04:16:24.097Z,9.41
2023-05-19T04:19:26.705Z,9.44
2023-05-19T04:22:30.985Z,9.48
2023-05-19T04:25:33.658Z,9.47
2023-05-19T04:28:39.941Z,9.42
2023-05-19T04:31:42.432Z,9.46
2023-05-19T04:34:46.122Z,9.57
2023-05-19T04:37:50.484Z,9.60
2023-05-19T04:40:53.945Z,9.50
2023-05-19T04:43:57.643Z,9.59
2023-05-19T04:47:00.867Z,9.71
2023-05-19T04:50:04.207Z,9.72
2023-05-19T04:53:07.330Z,9.67
2023-05-19T04:56:10.233Z,9.70
2023-05-19T04:59:13.118Z,9.74
2023-05-19T05:02:16.286Z,9.93
2023-05-19T05:05:19.308Z,10.01
2023-05-19T05:08:23.504Z,9.99
2023-05-19T05:11:26.845Z,10.03
2023-05-19T05:14:30.146Z,9.94
2023-05-19T05:17:35.642Z,10.01
2023-05-19T05:20:38.790Z,10.14
2023-05-19T05:23:41.879Z,10.17
2023-05-19T05:26:45.777Z,10.27
2023-05-19T05:29:50.587Z,10.32
2023-05-19T05:32:55.888Z,10.46
2023-05-19T05:36:01.652Z,10.44
2023-05-19T05:39:05.596Z,10.53
2023-05-19T05:42:11.106Z,10.59
2023-05-19T05:45:14.229Z,10.61
2023-05-19T05:48:17.646Z,10.72
2023-05-19T05:51:23.780Z,10.65
2023-05-19T05:57:31.075Z,10.81
2023-05-19T06:00:34.917Z,10.88
2023-05-19T06:03:44.291Z,11.03
2023-05-19T06:06:48.017Z,11.08
2023-05-19T06:09:52.364Z,11.16
2023-05-19T06:12:55.374Z,11.46
2023-05-19T06:16:00.453Z,11.87
2023-05-19T06:19:04.853Z,12.13
2023-05-19T06:22:07.759Z,12.34
2023-05-19T06:25:10.397Z,12.10
2023-05-19T06:28:13.690Z,12.18
2023-05-19T06:31:16.667Z,12.64
2023-05-19T06:34:21.091Z,13.12
2023-05-19T06:37:23.972Z,13.45
2023-05-19T06:40:27.010Z,13.97
2023-05-19T06:43:30.313Z,13.86
2023-05-19T06:46:33.402Z,13.41
2023-05-19T06:49:36.227Z,13.18
2023-05-19T06:52:39.517Z,13.11
2023-05-19T06:55:54.784Z,12.43
2023-05-19T06:59:02.264Z,12.73
2023-05-19T07:02:05.299Z,12.80
2023-05-19T07:05:09.298Z,12.71
2023-05-19T07:08:12.089Z,12.78
2023-05-19T07:11:15.414Z,12.91
2023-05-19T07:14:18.504Z,13.79
2023-05-19T07:17:22.460Z,14.02
2023-05-19T07:20:25.127Z,13.85
2023-05-19T07:23:27.850Z,14.43
2023-05-19T07:26:30.431Z,14.44
2023-05-19T07:29:33.423Z,14.08
2023-05-19T07:32:37.667Z,15.04
2023-05-19T07:35:42.675Z,15.29
2023-05-19T07:38:46.697Z,14.96
2023-05-19T07:41:52.853Z,15.62
2023-05-19T07:44:55.417Z,15.38
2023-05-19T07:47:58.324Z,14.44
2023-05-19T07:51:00.937Z,13.36
2023-05-19T07:54:03.785Z,14.19
2023-05-19T07:57:06.337Z,14.57
2023-05-19T08:00:12.121Z,14.03
2023-05-19T08:03:17.906Z,14.48
2023-05-19T08:06:21.302Z,14.51
2023-05-19T08:09:24.525Z,14.19
2023-05-19T08:12:28.879Z,14.65
2023-05-19T08:15:33.105Z,15.41
2023-05-19T08:18:37.365Z,15.36
2023-05-19T08:21:42.364Z,15.37
2023-05-19T08:24:45.197Z,14.83
2023-05-19T08:27:47.696Z,15.30
2023-05-19T08:30:52.325Z,16.50
2023-05-19T08:33:54.914Z,16.22
2023-05-19T08:36:58.033Z,16.40
2023-05-19T08:40:01.619Z,16.90
2023-05-19T08:43:08.096Z,17.28
2023-05-19T08:46:13.870Z,17.11
2023-05-19T08:49:17.909Z,16.11
2023-05-19T08:52:55.744Z,16.29
2023-05-19T08:55:59.003Z,16.43
2023-05-19T08:59:02.300Z,16.96
2023-05-19T09:02:05.225Z,16.51
2023-05-19T09:05:09.813Z,16.55
2023-05-19T09:08:12.719Z,17.17
2023-05-19T09:11:17.289Z,17.66
2023-05-19T09:14:19.886Z,17.49
2023-05-19T09:17:22.795Z,17.48
2023-05-19T09:20:25.314Z,18.41
2023-05-19T09:26:39.313Z,17.91
2023-05-19T09:29:42.558Z,19.13
2023-05-19T09:32:47.173Z,20.19
2023-05-19T09:35:50.043Z,18.81
2023-05-19T09:38:52.673Z,18.89
2023-05-19T09:41:58.529Z,18.24
2023-05-19T09:45:02.247Z,17.99
2023-05-19T09:48:05.838Z,18.79
2023-05-19T09:51:10.842Z,18.99
2023-05-19T09:54:16.891Z,18.64
2023-05-19T09:57:26.895Z,18.72
2023-05-19T10:00:31.473Z,18.26
2023-05-19T10:03:34.911Z,18.80
2023-05-19T10:06:37.575Z,21.33
2023-05-19T10:09:41.788Z,20.38
2023-05-19T10:12:44.328Z,19.29
2023-05-19T10:15:58.047Z,19.84
2023-05-19T10:19:02.687Z,19.82
2023-05-19T10:22:05.536Z,20.45
2023-05-19T10:25:09.897Z,20.11
2023-05-19T10:28:15.179Z,20.41
2023-05-19T10:31:19.615Z,20.52
2023-05-19T10:34:57.359Z,20.54
2023-05-19T10:38:44.651Z,19.94
2023-05-19T10:42:18.174Z,19.25
2023-05-19T10:45:22.716Z,20.97
2023-05-19T10:48:25.771Z,21.89
2023-05-19T10:51:32.165Z,22.07
2023-05-19T10:54:43.459Z,21.79
2023-05-19T10:57:56.929Z,20.71
2023-05-19T11:01:03.049Z,19.81
2023-05-19T11:07:19.543Z,20.82
2023-05-19T11:10:25.305Z,20.15
2023-05-19T11:13:28.717Z,20.82
2023-05-19T11:16:34.655Z,20.23
2023-05-19T11:19:37.574Z,20.95
2023-05-19T11:22:41.444Z,20.89
2023-05-19T11:25:52.226Z,20.22
2023-05-19T11:28:54.764Z,20.22
2023-05-19T11:31:58.853Z,20.25
2023-05-19T11:35:04.531Z,20.29
2023-05-19T11:38:07.426Z,19.35
2023-05-19T11:41:09.935Z,19.38
2023-05-19T11:44:12.821Z,20.06
2023-05-19T11:47:16.878Z,20.22
2023-05-19T11:50:20.652Z,20.78
2023-05-19T11:53:23.370Z,20.68
2023-05-19T11:56:26.236Z,20.42
2023-05-19T11:59:36.418Z,20.39
2023-05-19T12:02:39.374Z,19.41
2023-05-19T12:05:47.405Z,19.24
2023-05-19T12:08:54.816Z,20.19
2023-05-19T12:11:58.450Z,19.72
2023-05-19T12:15:03.617Z,19.46
2023-05-19T12:18:07.546Z,19.16
2023-05-19T12:21:10.347Z,19.51
2023-05-19T12:24:13.598Z,19.92
2023-05-19T12:27:28.260Z,20.15
2023-05-19T12:30:32.577Z,19.99
2023-05-19T12:33:35.987Z,19.52
2023-05-19T12:36:38.873Z,19.13
2023-05-19T12:39:42.922Z,19.11
2023-05-19T12:42:45.760Z,19.62
2023-05-19T12:45:48.858Z,20.17
2023-05-19T12:48:51.818Z,20.42
2023-05-19T12:51:54.496Z,19.96
2023-05-19T12:55:02.270Z,19.84
2023-05-19T12:58:06.916Z,19.64
2023-05-19T13:01:17.532Z,19.61
2023-05-19T13:04:20.213Z,19.66
2023-05-19T13:07:23.098Z,19.80
2023-05-19T13:10:29.448Z,19.77
2023-05-19T13:13:32.448Z,19.61
2023-05-19T13:16:35.060Z,19.40
2023-05-19T13:19:38.083Z,18.98
2023-05-19T13:22:40.866Z,19.21
2023-05-19T13:25:44.029Z,19.76
2023-05-19T13:28:46.539Z,19.56
2023-05-19T13:31:49.302Z,19.60
2023-05-19T13:34:51.863Z,19.29
2023-05-19T13:37:54.857Z,19.42
2023-05-19T13:40:57.442Z,19.82
2023-05-19T13:44:01.169Z,19.12
2023-05-19T13:47:03.755Z,19.45
2023-05-19T13:50:06.944Z,19.23
2023-05-19T13:53:11.412Z,19.31
2023-05-19T13:56:15.793Z,19.54
2023-05-19T13:59:21.570Z,19.38
2023-05-19T14:02:24.447Z,19.32
2023-05-19T14:05:28.866Z,19.25
2023-05-19T14:08:31.576Z,18.94
2023-05-19T14:11:34.515Z,19.12
2023-05-19T14:14:37.123Z,18.93
2023-05-19T14:17:39.947Z,19.01
2023-05-19T14:20:42.478Z,18.96
2023-05-19T14:23:47.779Z,19.03
2023-05-19T14:26:50.680Z,18.72
2023-05-19T14:29:55.303Z,18.82
2023-05-19T14:32:58.158Z,19.14
2023-05-19T14:36:01.413Z,19.09
2023-05-19T14:39:03.924Z,19.14
2023-05-19T14:42:06.728Z,19.16
2023-05-19T14:45:09.824Z,19.23
2023-05-19T14:48:12.656Z,19.27
2023-05-19T14:51:15.254Z,19.11
2023-05-19T14:54:18.041Z,18.95
2023-05-19T14:57:20.474Z,18.98
2023-05-19T15:00:26.037Z,18.94
2023-05-19T15:03:28.567Z,18.85
2023-05-19T15:06:31.530Z,18.90
2023-05-19T15:09:34.051Z,18.90
2023-05-19T15:12:36.879Z,18.90
2023-05-19T15:15:39.346Z,18.84
2023-05-19T15:18:42.194Z,18.92
2023-05-19T15:21:45.763Z,18.81
2023-05-19T15:24:48.745Z,18.91
2023-05-19T15:27:51.295Z,18.87
2023-05-19T15:30:54.095Z,18.75
2023-05-19T15:33:56.782Z,18.65
2023-05-19T15:37:00.234Z,18.57
2023-05-19T15:43:06.487Z,18.48
2023-05-19T15:46:09.054Z,18.52
2023-05-19T15:49:12.824Z,18.55
2023-05-19T15:52:34.453Z,18.51
2023-05-19T15:55:37.263Z,18.59
2023-05-19T15:58:39.864Z,18.55
2023-05-19T16:01:43.030Z,18.40
2023-05-19T16:04:46.023Z,18.34
2023-05-19T16:07:48.455Z,18.28
2023-05-19T16:10:51.220Z,18.23
2023-05-19T16:13:53.742Z,18.28
2023-05-19T16:16:56.931Z,18.28
2023-05-19T16:19:59.391Z,18.14
2023-05-19T16:23:04.088Z,18.13
2023-05-19T16:26:06.625Z,18.14
2023-05-19T16:29:09.393Z,18.05
2023-05-19T16:32:12.058Z,17.98
2023-05-19T16:35:14.986Z,17.96
2023-05-19T16:38:17.449Z,17.89
2023-05-19T16:41:20.198Z,17.86
2023-05-19T16:44:24.525Z,17.77
2023-05-19T16:47:27.438Z,17.70
2023-05-19T16:50:30.744Z,17.66
2023-05-19T16:53:33.641Z,17.74
2023-05-19T16:56:36.203Z,17.72
2023-05-19T16:59:39.006Z,17.69
2023-05-19T17:02:41.602Z,17.63
2023-05-19T17:05:44.568Z,17.58
2023-05-19T17:08:47.155Z,17.53
2023-05-19T17:11:49.947Z,17.51
2023-05-19T17:14:52.596Z,17.45
2023-05-19T17:17:55.460Z,17.46
2023-05-19T17:20:59.443Z,17.47
2023-05-19T17:24:02.323Z,17.48
2023-05-19T17:27:05.053Z,17.49
2023-05-19T17:30:09.233Z,17.49
2023-05-19T17:33:11.781Z,17.43
2023-05-19T17:36:15.840Z,17.35
2023-05-19T17:39:20.172Z,17.34
2023-05-19T17:42:22.985Z,17.29
2023-05-19T17:45:26.519Z,17.24
2023-05-19T17:51:33.007Z,17.14
2023-05-19T17:54:36.057Z,17.11
2023-05-19T18:00:44.232Z,17.03
2023-05-19T18:03:49.437Z,16.98
2023-05-19T18:06:52.711Z,16.93
2023-05-19T18:09:58.157Z,16.85
2023-05-19T18:13:00.992Z,16.78
2023-05-19T18:16:04.207Z,16.74
2023-05-19T18:19:08.436Z,16.69
2023-05-19T18:22:13.006Z,16.64
2023-05-19T18:25:17.015Z,16.58
2023-05-19T18:28:19.983Z,16.50
2023-05-19T18:31:22.529Z,16.42
2023-05-19T18:34:25.579Z,16.32
2023-05-19T18:37:28.688Z,16.26
2023-05-19T18:40:31.757Z,16.16
2023-05-19T18:43:34.462Z,16.07
2023-05-19T18:46:39.102Z,15.98
2023-05-19T18:49:42.134Z,15.94
2023-05-19T18:52:46.500Z,15.89
2023-05-19T18:55:48.993Z,15.84
2023-05-19T18:58:54.522Z,15.79
2023-05-19T19:01:57.857Z,15.76
2023-05-19T19:08:05.676Z,15.63
2023-05-19T19:11:11.292Z,15.57
2023-05-19T19:14:13.775Z,15.49
2023-05-19T19:20:37.911Z,15.49
2023-05-19T19:23:40.709Z,15.55
2023-05-19T19:26:43.180Z,15.53
2023-05-19T19:29:46.195Z,15.47
2023-05-19T19:32:48.711Z,15.35
2023-05-19T19:35:51.677Z,15.27
2023-05-19T19:38:54.178Z,15.16
2023-05-19T19:41:56.960Z,15.04
2023-05-19T19:44:59.452Z,14.95
2023-05-19T19:48:02.390Z,14.83
2023-05-19T19:51:04.909Z,14.87
2023-05-19T19:54:07.755Z,14.82
2023-05-19T19:57:10.310Z,14.75
2023-05-19T20:00:13.859Z,14.64
2023-05-19T20:03:18.497Z,14.53
2023-05-19T20:06:22.825Z,14.44
2023-05-19T20:09:27.249Z,14.35
2023-05-19T20:12:30.192Z,14.28
2023-05-19T20:15:34.788Z,14.25
2023-05-19T20:18:37.358Z,14.25
2023-05-19T20:21:40.111Z,14.23
2023-05-19T20:24:42.627Z,14.14
2023-05-19T20:27:45.508Z,14.07
2023-05-19T20:30:48.066Z,13.99
2023-05-19T20:33:51.017Z,13.96
2023-05-19T20:36:54.514Z,13.89
2023-05-19T20:39:57.288Z,13.77
2023-05-19T20:42:59.784Z,13.69
2023-05-19T20:46:03.899Z,13.62
2023-05-19T20:49:06.634Z,13.73
2023-05-19T20:52:09.469Z,13.73
2023-05-19T20:55:12.008Z,13.57
2023-05-19T20:58:14.789Z,13.44
2023-05-19T21:01:17.468Z,13.69
2023-05-19T21:04:20.510Z,13.49
2023-05-19T21:07:23.061Z,13.50
2023-05-19T21:10:25.815Z,13.28
2023-05-19T21:13:28.307Z,13.35
2023-05-19T21:16:31.604Z,13.33
2023-05-19T21:19:36.940Z,13.30
2023-05-19T21:22:40.872Z,13.21
2023-05-19T21:25:45.315Z,13.08
2023-05-19T21:28:48.220Z,12.96
2023-05-19T21:31:55.999Z,12.86
2023-05-19T21:34:58.951Z,12.84
2023-05-19T21:38:12.122Z,12.75
2023-05-19T21:41:19.480Z,12.74
2023-05-19T21:44:23.854Z,12.83
2023-05-19T21:47:26.900Z,12.73
2023-05-19T21:50:29.370Z,12.64
2023-05-19T21:53:32.892Z,12.63
2023-05-19T21:59:40.619Z,12.72
2023-05-19T22:05:52.967Z,12.60
2023-05-19T22:08:55.692Z,12.48
2023-05-19T22:11:58.403Z,12.43
2023-05-19T22:15:01.123Z,12.34
2023-05-19T22:18:04.081Z,12.36
2023-05-19T22:21:06.692Z,12.57
2023-05-19T22:24:09.536Z,12.83
2023-05-19T22:27:12.113Z,12.95
2023-05-19T22:30:15.713Z,12.96
2023-05-19T22:33:18.308Z,12.97
2023-05-19T22:36:21.175Z,12.75
2023-05-19T22:39:23.684Z,12.59
2023-05-19T22:42:27.004Z,12.49
2023-05-19T22:48:34.857Z,12.25
2023-05-19T22:51:38.246Z,12.20
2023-05-19T22:54:43.075Z,12.15
2023-05-19T22:57:45.590Z,12.04
2023-05-19T23:00:48.369Z,11.96
2023-05-19T23:03:52.647Z,11.96
2023-05-19T23:06:55.641Z,11.92
2023-05-19T23:09:58.102Z,11.84
2023-05-19T23:13:04.675Z,11.82
2023-05-19T23:16:07.703Z,11.79
2023-05-19T23:19:10.603Z,11.71
2023-05-19T23:22:13.144Z,11.62
2023-05-19T23:25:15.954Z,11.49
2023-05-19T23:28:18.477Z,11.51
2023-05-19T23:31:21.265Z,11.35
2023-05-19T23:34:23.814Z,11.34
2023-05-19T23:37:26.528Z,11.31
2023-05-19T23:40:29.032Z,11.25
2023-05-19T23:43:34.749Z,11.15
2023-05-19T23:46:37.383Z,11.06
2023-05-19T23:49:40.294Z,11.02
2023-05-19T23:52:42.791Z,11.04
2023-05-19T23:55:46.214Z,11.04
2023-05-19T23:58:48.719Z,11.19
